This is the latest recevied weather packets stored in our database for station/object WX3I. If no packets are shown the sender has not sent any weather packets the latest 10 day(s).
| Time | Temp. | Humidity | Pressure | Rain* | Wind** | Luminosity | Snow |
|---|---|---|---|---|---|---|---|
| 1777545304 | 8.89° C | 98% | 1009.2 hPa | 0 mm | - | 21 W/m² | - |
| 1777544704 | 8.89° C | 98% | 1009.2 hPa | 0 mm | - | 6 W/m² | - |
| 1777542904 | 8.89° C | 98% | 1009.2 hPa | 0 mm | - | 0 W/m² | - |
| 1777541704 | 8.33° C | 98% | 1009.2 hPa | 0 mm | - | 0 W/m² | - |
| 1777538704 | 8.33° C | 97% | 1008.6 hPa | 0 mm | - | 0 W/m² | - |
| 1777538404 | 8.33° C | 97% | 1008.5 hPa | 0 mm | - | 0 W/m² | - |
| 1777538104 | 8.33° C | 97% | 1008.5 hPa | 0 mm | - | 0 W/m² | - |
| 1777537804 | 8.33° C | 97% | 1008.5 hPa | 0 mm | - | 0 W/m² | - |
| 1777537505 | 8.33° C | 97% | 1008.5 hPa | 0 mm | - | 0 W/m² | - |
| 1777533004 | 8.33° C | 97% | 1008.9 hPa | 0 mm | - | 0 W/m² | - |
| 1777531204 | 8.33° C | 97% | 1009.2 hPa | 0 mm | - | 0 W/m² | - |
| 1777530605 | 8.33° C | 97% | 1009.3 hPa | 0 mm | - | 0 W/m² | - |
| 1777530305 | 8.33° C | 97% | 1009.3 hPa | 0 mm | - | 0 W/m² | - |
| 1777529105 | 8.33° C | 96% | 1009.7 hPa | 0 mm | - | 0 W/m² | - |
| 1777527004 | 8.33° C | 96% | 1010 hPa | 0.76 mm | - | 0 W/m² | - |
| 1777524604 | 8.33° C | 96% | 1010.6 hPa | 13.21 mm | - | 0 W/m² | - |
| 1777524304 | 8.33° C | 95% | 1010.5 hPa | 13.21 mm | - | 0 W/m² | - |
| 1777513204 | 8.89° C | 91% | 1011.5 hPa | 0.51 mm | - | 0 W/m² | - |
| 1777512604 | 8.89° C | 90% | 1011.7 hPa | 1.27 mm | - | 0 W/m² | - |
| 1777511105 | 9.44° C | 89% | 1011.4 hPa | 2.54 mm | - | 0 W/m² | - |
| 1777506904 | 11.11° C | 75% | 1011.5 hPa | 1.27 mm | - | 11 W/m² | - |
| 1777505704 | 11.67° C | 75% | 1011.4 hPa | 1.52 mm | - | 25 W/m² | - |
| 1777501504 | 13.33° C | 69% | 1011 hPa | 1.27 mm | - | 166 W/m² | - |
| 1777496404 | 15.56° C | 58% | 1011.7 hPa | 0 mm | - | 669 W/m² | - |
| 1777494304 | 15.56° C | 57% | 1011.9 hPa | 0 mm | - | 802 W/m² | - |
* Rain latest hour (hover to see other rain measurements)
** Current wind speed in m/s (hover to see current wind gust speed)